Time;durP1;ratioP1;P1;durP2;ratioP2;P2;SDS_P1;SDS_P2;PMS_P1;PMS_P2;Temp;Humidity;BMP_temperature;BMP_pressure;BME280_temperature;BME280_humidity;BME280_pressure;Samples;Min_cycle;Max_cycle;Signal;HPM_P1;HPM_P2
2022/11/20 00:01:14;;;;;;;3.30;1.85;;;6.00;99.90;;;;;;5034587;28;20120;-70
2022/11/20 00:03:40;;;;;;;2.95;1.75;;;6.00;99.90;;;;;;5033143;28;20041;-70
2022/11/20 00:06:09;;;;;;;2.60;1.80;;;6.00;99.90;;;;;;5034630;28;20079;-72
2022/11/20 00:08:35;;;;;;;3.53;1.83;;;6.00;99.90;;;;;;5034474;28;20038;-70
2022/11/20 00:11:10;;;;;;;4.18;1.90;;;6.00;99.90;;;;;;5034614;28;20041;-70
2022/11/20 00:13:36;;;;;;;5.53;1.98;;;6.00;99.90;;;;;;5034348;28;20408;-70
2022/11/20 00:16:05;;;;;;;4.65;2.50;;;6.00;99.90;;;;;;5034315;28;20045;-69
2022/11/20 00:18:32;;;;;;;4.95;1.90;;;6.00;99.90;;;;;;5033161;28;20512;-70
2022/11/20 00:21:14;;;;;;;6.50;2.00;;;6.00;99.90;;;;;;5034438;28;20095;-69
2022/11/20 00:23:39;;;;;;;3.40;1.98;;;6.10;99.90;;;;;;5033801;28;20065;-70
2022/11/20 00:26:11;;;;;;;2.80;1.80;;;6.10;99.90;;;;;;5030739;28;20538;-71
2022/11/20 00:28:36;;;;;;;6.43;1.90;;;6.10;99.90;;;;;;5034202;28;20094;-70
2022/11/20 00:31:02;;;;;;;2.67;1.75;;;6.20;99.90;;;;;;5034247;28;20496;-69
2022/11/20 00:33:29;;;;;;;6.32;2.28;;;6.20;99.90;;;;;;5034245;28;20037;-69
2022/11/20 00:36:07;;;;;;;2.75;1.65;;;6.20;99.90;;;;;;5034329;28;20064;-70
2022/11/20 00:38:33;;;;;;;3.53;2.47;;;6.10;99.90;;;;;;5034020;28;20389;-71
2022/11/20 00:41:04;;;;;;;3.88;1.95;;;6.20;99.90;;;;;;5033165;28;20048;-70
2022/11/20 00:43:33;;;;;;;3.35;2.10;;;6.20;99.90;;;;;;5033007;28;20037;-69
2022/11/20 00:46:09;;;;;;;5.80;2.50;;;6.20;99.90;;;;;;5033707;28;20046;-69
2022/11/20 00:48:35;;;;;;;3.88;1.90;;;6.20;99.90;;;;;;5034107;28;20053;-71
2022/11/20 00:51:01;;;;;;;3.10;1.55;;;6.20;99.90;;;;;;5033945;28;20037;-69
2022/11/20 00:53:27;;;;;;;3.70;2.03;;;6.10;99.90;;;;;;5034116;28;20056;-69
2022/11/20 00:55:57;;;;;;;3.72;1.70;;;6.10;99.90;;;;;;5033983;28;20057;-69
2022/11/20 00:58:23;;;;;;;2.88;1.70;;;6.10;99.90;;;;;;5032408;28;20415;-70
2022/11/20 01:00:49;;;;;;;4.15;1.60;;;6.10;99.90;;;;;;5019577;28;20496;-69
2022/11/20 01:03:16;;;;;;;3.47;1.90;;;6.10;99.90;;;;;;5013945;28;20089;-69
2022/11/20 01:05:42;;;;;;;4.05;1.55;;;6.10;99.90;;;;;;5014143;28;20104;-69
2022/11/20 01:08:08;;;;;;;3.90;2.40;;;6.20;99.90;;;;;;5014120;28;20409;-69
2022/11/20 01:10:34;;;;;;;5.18;2.10;;;6.20;99.90;;;;;;5014158;28;20048;-69
2022/11/20 01:15:43;;;;;;;2.20;1.73;;;6.10;99.90;;;;;;5017868;28;20080;-69
2022/11/20 01:18:09;;;;;;;3.13;1.95;;;6.10;99.90;;;;;;5017896;28;20448;-69
2022/11/20 01:20:35;;;;;;;2.35;1.58;;;6.10;99.90;;;;;;5017978;28;20048;-70
2022/11/20 01:23:04;;;;;;;3.35;1.73;;;6.10;99.90;;;;;;5017907;28;20400;-69
2022/11/20 01:25:30;;;;;;;9.93;8.00;;;6.30;99.90;;;;;;5017792;28;20053;-69
2022/11/20 01:27:56;;;;;;;8.45;7.18;;;6.20;99.90;;;;;;5018005;28;20045;-69
2022/11/20 01:30:22;;;;;;;6.50;2.60;;;6.10;99.90;;;;;;5016954;28;20096;-72
2022/11/20 01:32:47;;;;;;;4.18;2.45;;;6.10;99.90;;;;;;5017596;28;20046;-69
2022/11/20 01:35:14;;;;;;;2.85;1.77;;;6.10;99.90;;;;;;5016994;28;20563;-71
2022/11/20 01:37:40;;;;;;;4.25;1.67;;;6.00;99.90;;;;;;5014319;28;20412;-69
2022/11/20 01:40:06;;;;;;;6.18;2.28;;;6.10;99.90;;;;;;5015358;28;20128;-69
2022/11/20 01:45:47;;;;;;;3.42;2.05;;;6.10;99.90;;;;;;5016476;28;20076;-70
2022/11/20 01:48:14;;;;;;;4.88;2.30;;;6.00;99.90;;;;;;5017365;28;20509;-71
2022/11/20 01:50:41;;;;;;;2.75;1.73;;;6.00;99.90;;;;;;5016012;28;20069;-70
2022/11/20 01:53:13;;;;;;;4.80;2.05;;;6.10;99.90;;;;;;5015076;28;20046;-69
2022/11/20 01:55:47;;;;;;;2.65;1.58;;;6.10;99.90;;;;;;5017023;28;20073;-68
2022/11/20 01:58:13;;;;;;;7.35;3.75;;;6.00;99.90;;;;;;5015005;28;20059;-72
2022/11/20 02:00:40;;;;;;;5.32;2.60;;;6.00;99.90;;;;;;5014961;28;20097;-71
2022/11/20 02:03:12;;;;;;;2.85;1.80;;;6.10;99.90;;;;;;5015889;28;20041;-68
2022/11/20 02:05:41;;;;;;;4.10;1.85;;;6.00;99.90;;;;;;5015600;28;20481;-70
2022/11/20 02:08:14;;;;;;;4.72;1.80;;;6.00;99.90;;;;;;5014733;28;20040;-69
2022/11/20 02:10:40;;;;;;;2.17;1.40;;;6.00;99.90;;;;;;5015065;28;20040;-71
2022/11/20 02:15:50;;;;;;;3.28;1.90;;;6.00;99.90;;;;;;5015986;28;20044;-69
2022/11/20 02:18:19;;;;;;;3.45;2.95;;;6.00;99.90;;;;;;5016718;28;20029;-69
2022/11/20 02:20:48;;;;;;;5.63;3.13;;;6.00;99.90;;;;;;5014634;28;20042;-71
2022/11/20 02:23:56;;;;;;;7.13;4.72;;;5.90;99.90;;;;;;5015119;28;20038;-70
2022/11/20 02:26:23;;;;;;;6.80;4.63;;;6.00;99.90;;;;;;5015253;28;20045;-69
2022/11/20 02:28:50;;;;;;;5.28;3.70;;;5.90;99.90;;;;;;5013570;28;20583;-68
2022/11/20 02:31:16;;;;;;;3.72;2.47;;;5.90;99.90;;;;;;5016017;28;20068;-69
2022/11/20 02:33:42;;;;;;;7.15;5.20;;;5.90;99.90;;;;;;5015439;28;20038;-69
2022/11/20 02:36:14;;;;;;;4.55;2.28;;;5.90;99.90;;;;;;5018999;28;20044;-68
2022/11/20 02:38:39;;;;;;;6.00;3.75;;;5.80;99.90;;;;;;5016549;28;20083;-69
2022/11/20 02:41:05;;;;;;;3.70;1.48;;;5.90;99.90;;;;;;5016542;28;20049;-69
2022/11/20 02:43:31;;;;;;;2.58;1.50;;;5.80;99.90;;;;;;5016365;28;20045;-71
2022/11/20 02:45:57;;;;;;;3.55;1.60;;;5.80;99.90;;;;;;5016276;28;20033;-69
2022/11/20 02:48:22;;;;;;;2.83;2.17;;;5.80;99.90;;;;;;5016491;28;20088;-69
2022/11/20 02:50:48;;;;;;;2.28;1.10;;;5.80;99.90;;;;;;5016549;28;20037;-72
2022/11/20 02:53:14;;;;;;;2.83;1.50;;;5.80;99.90;;;;;;5016332;28;20425;-69
2022/11/20 02:55:39;;;;;;;4.90;2.45;;;5.90;99.90;;;;;;5016390;28;20580;-70
2022/11/20 02:58:05;;;;;;;3.47;2.00;;;5.80;99.90;;;;;;5024777;28;20069;-69
2022/11/20 03:00:31;;;;;;;3.20;1.50;;;5.80;99.90;;;;;;5035700;28;20562;-69
2022/11/20 03:02:57;;;;;;;1.77;1.10;;;5.80;99.90;;;;;;5035679;28;20045;-72
2022/11/20 03:05:23;;;;;;;1.58;1.38;;;5.80;99.90;;;;;;5035852;28;20048;-69
2022/11/20 03:07:49;;;;;;;2.75;1.40;;;5.80;99.90;;;;;;5036226;28;20080;-73
2022/11/20 03:10:15;;;;;;;1.95;0.80;;;5.80;99.90;;;;;;5055756;28;20388;-68
2022/11/20 03:12:40;;;;;;;2.75;1.08;;;5.80;99.90;;;;;;5043296;28;20081;-68
2022/11/20 03:15:06;;;;;;;1.60;0.95;;;5.80;99.90;;;;;;5033362;28;20468;-68
2022/11/20 03:17:32;;;;;;;1.15;0.82;;;5.70;99.90;;;;;;5034093;28;20052;-70
2022/11/20 03:19:58;;;;;;;2.15;1.23;;;5.80;99.90;;;;;;5035674;28;20385;-69
2022/11/20 03:22:24;;;;;;;3.97;1.08;;;5.70;99.90;;;;;;5035556;28;20041;-71
2022/11/20 03:24:49;;;;;;;1.73;0.80;;;5.70;99.90;;;;;;5035479;28;20037;-69
2022/11/20 03:27:15;;;;;;;1.65;0.93;;;5.70;99.90;;;;;;5035216;28;20475;-69
2022/11/20 03:29:41;;;;;;;1.70;0.95;;;5.70;99.90;;;;;;5035309;28;20041;-69
2022/11/20 03:32:07;;;;;;;2.10;0.90;;;5.70;99.90;;;;;;5035288;28;20083;-68
2022/11/20 03:34:32;;;;;;;2.53;0.90;;;5.70;99.90;;;;;;5035280;28;20427;-69
2022/11/20 03:36:58;;;;;;;3.35;0.93;;;5.70;99.90;;;;;;5033340;28;20466;-69
2022/11/20 03:39:24;;;;;;;3.63;1.20;;;5.70;99.90;;;;;;5035270;28;20512;-69
2022/11/20 03:41:49;;;;;;;1.92;1.05;;;5.60;99.90;;;;;;5034505;28;20128;-68
2022/11/20 03:44:15;;;;;;;2.88;1.48;;;5.60;99.90;;;;;;5030928;28;20145;-69
2022/11/20 03:46:41;;;;;;;2.40;1.13;;;5.60;99.90;;;;;;5033449;28;20119;-69
2022/11/20 03:49:06;;;;;;;2.10;1.00;;;5.70;99.90;;;;;;5032368;28;20045;-70
2022/11/20 03:51:34;;;;;;;2.47;0.95;;;5.70;99.90;;;;;;5035000;28;20041;-69
2022/11/20 03:54:03;;;;;;;1.75;1.10;;;5.70;99.90;;;;;;5035023;28;20469;-69
2022/11/20 03:56:31;;;;;;;1.40;0.80;;;5.70;99.90;;;;;;5034902;28;20501;-69
2022/11/20 03:58:57;;;;;;;1.23;0.80;;;5.70;99.90;;;;;;5034909;28;20038;-69
2022/11/20 04:01:26;;;;;;;2.03;1.02;;;5.60;99.90;;;;;;5034816;28;20052;-69
2022/11/20 04:03:53;;;;;;;1.95;1.05;;;5.60;99.90;;;;;;5034768;28;20526;-69
2022/11/20 04:06:27;;;;;;;3.28;1.15;;;5.50;99.90;;;;;;5034641;28;20084;-68
2022/11/20 04:08:57;;;;;;;2.58;0.98;;;5.50;99.90;;;;;;5034460;28;20496;-69
2022/11/20 04:11:29;;;;;;;2.15;0.85;;;5.50;99.90;;;;;;5034559;28;20049;-69
2022/11/20 04:14:00;;;;;;;0.93;0.80;;;5.50;99.90;;;;;;5034652;28;20507;-68
2022/11/20 04:16:29;;;;;;;2.78;0.70;;;5.50;99.90;;;;;;5034588;28;20112;-69
2022/11/20 04:18:56;;;;;;;5.63;1.08;;;5.50;99.90;;;;;;5034534;28;20049;-69
2022/11/20 04:21:22;;;;;;;1.65;0.95;;;5.50;99.90;;;;;;5034440;28;20037;-70
2022/11/20 04:23:48;;;;;;;2.70;0.90;;;5.50;99.90;;;;;;5034524;28;20500;-70
2022/11/20 04:26:14;;;;;;;3.47;1.33;;;5.50;99.90;;;;;;5034450;28;20056;-71
2022/11/20 04:28:40;;;;;;;1.52;0.80;;;5.50;99.90;;;;;;5034410;28;20045;-72
2022/11/20 04:31:15;;;;;;;1.52;1.02;;;5.50;99.90;;;;;;5034355;28;20045;-70
2022/11/20 04:33:42;;;;;;;1.95;0.95;;;5.50;99.90;;;;;;5034279;28;20091;-69
2022/11/20 04:36:12;;;;;;;2.00;0.90;;;5.50;99.90;;;;;;5034300;28;20443;-69
2022/11/20 04:38:38;;;;;;;1.92;1.10;;;5.50;99.90;;;;;;5034470;28;20463;-68
2022/11/20 04:41:06;;;;;;;2.35;1.13;;;5.50;99.90;;;;;;5034356;28;20496;-68
2022/11/20 04:43:33;;;;;;;1.73;1.20;;;5.50;99.90;;;;;;5034229;28;20044;-68
2022/11/20 04:45:59;;;;;;;7.63;1.75;;;5.50;99.90;;;;;;5034267;28;20068;-68
2022/11/20 04:48:27;;;;;;;3.38;1.50;;;5.50;99.90;;;;;;5034002;28;20041;-68
2022/11/20 04:50:53;;;;;;;4.18;1.52;;;5.50;99.90;;;;;;5034023;28;20181;-68
2022/11/20 04:53:19;;;;;;;7.10;1.92;;;5.50;99.90;;;;;;5030850;28;20124;-72
2022/11/20 04:55:45;;;;;;;4.18;1.55;;;5.50;99.90;;;;;;5014120;28;20573;-69
2022/11/20 04:58:11;;;;;;;3.50;1.77;;;5.60;99.90;;;;;;5014497;28;20073;-70
2022/11/20 05:00:37;;;;;;;4.65;1.98;;;5.50;99.90;;;;;;5014240;28;20124;-69
2022/11/20 05:03:03;;;;;;;4.70;1.45;;;5.60;99.90;;;;;;5013852;28;20132;-69
2022/11/20 05:05:29;;;;;;;4.20;1.92;;;5.50;99.90;;;;;;5014175;28;20042;-72
2022/11/20 05:07:58;;;;;;;2.70;1.58;;;5.50;99.90;;;;;;5014122;28;20053;-69
2022/11/20 05:10:25;;;;;;;4.10;1.92;;;5.50;99.90;;;;;;5014177;28;20061;-72
2022/11/20 05:12:51;;;;;;;8.90;2.00;;;5.50;99.90;;;;;;5014061;28;20046;-69
2022/11/20 05:15:17;;;;;;;4.68;1.83;;;5.60;99.90;;;;;;5013893;28;20580;-69
2022/11/20 05:17:52;;;;;;;6.32;2.25;;;5.60;99.90;;;;;;5016266;28;20394;-69
2022/11/20 05:20:19;;;;;;;2.95;1.63;;;5.60;99.90;;;;;;5014106;28;20042;-72
2022/11/20 05:22:45;;;;;;;4.28;2.42;;;5.60;99.90;;;;;;5014036;28;20497;-69
2022/11/20 05:25:11;;;;;;;4.43;2.15;;;5.60;99.90;;;;;;5013951;28;20038;-69
2022/11/20 05:27:37;;;;;;;3.15;1.90;;;5.60;99.90;;;;;;5013992;28;20164;-71
2022/11/20 05:30:04;;;;;;;6.05;2.08;;;5.60;99.90;;;;;;5013857;28;20034;-71
2022/11/20 05:32:30;;;;;;;4.18;1.90;;;5.60;99.90;;;;;;5013856;28;20436;-72
2022/11/20 05:34:56;;;;;;;7.50;2.10;;;5.60;99.90;;;;;;5012547;28;20038;-69
2022/11/20 05:37:22;;;;;;;3.10;1.85;;;5.70;99.90;;;;;;5013854;28;20034;-73
2022/11/20 05:39:48;;;;;;;4.10;1.65;;;5.70;99.90;;;;;;5013734;28;20038;-72
2022/11/20 05:42:32;;;;;;;3.15;1.70;;;5.70;99.90;;;;;;5013777;28;20444;-69
2022/11/20 05:45:02;;;;;;;3.67;1.90;;;5.70;99.90;;;;;;5013720;28;20050;-69
2022/11/20 05:47:31;;;;;;;;;;;5.70;99.90;;;;;;5014151;28;20084;-69
2022/11/20 05:49:57;;;;;;;7.50;1.90;;;5.80;99.90;;;;;;5013830;28;19988;-69
2022/11/20 05:52:22;;;;;;;2.85;1.65;;;5.70;99.90;;;;;;5013819;28;20076;-69
2022/11/20 05:54:48;;;;;;;7.00;2.42;;;5.70;99.90;;;;;;5013811;28;20041;-72
2022/11/20 05:57:14;;;;;;;4.35;2.20;;;5.60;99.90;;;;;;5013672;28;20034;-69
2022/11/20 05:59:40;;;;;;;3.78;1.80;;;5.70;99.90;;;;;;5014226;28;20038;-69
2022/11/20 06:02:05;;;;;;;5.00;2.28;;;5.60;99.90;;;;;;5017220;28;20129;-69
2022/11/20 06:04:31;;;;;;;4.57;1.98;;;5.60;99.90;;;;;;5017347;28;20038;-69
2022/11/20 06:06:57;;;;;;;5.25;1.92;;;5.60;99.90;;;;;;5017297;28;20050;-71
2022/11/20 06:09:22;;;;;;;6.63;2.13;;;5.60;99.90;;;;;;5017033;28;20509;-70
2022/11/20 06:11:48;;;;;;;7.47;2.30;;;5.50;99.90;;;;;;5016777;28;20125;-71
2022/11/20 06:14:14;;;;;;;7.30;2.63;;;5.50;99.90;;;;;;5017121;28;20042;-69
2022/11/20 06:16:39;;;;;;;7.40;2.03;;;5.50;99.90;;;;;;5017096;28;20072;-69
2022/11/20 06:19:07;;;;;;;4.25;2.20;;;5.40;99.90;;;;;;5016788;28;20058;-70
2022/11/20 06:21:32;;;;;;;6.15;2.15;;;5.40;99.90;;;;;;5016895;28;20117;-68
2022/11/20 06:23:58;;;;;;;7.45;2.60;;;5.40;99.90;;;;;;5016889;28;20049;-68
2022/11/20 06:26:26;;;;;;;6.50;2.38;;;5.30;99.90;;;;;;5016711;28;20046;-69
2022/11/20 06:28:54;;;;;;;3.88;2.38;;;5.30;99.90;;;;;;5016694;28;20040;-70
2022/11/20 06:31:24;;;;;;;3.80;2.15;;;5.30;99.90;;;;;;5016493;28;20056;-68
2022/11/20 06:33:51;;;;;;;;;;;5.30;99.90;;;;;;5017213;28;20072;-69
2022/11/20 06:36:19;;;;;;;7.55;2.22;;;5.30;99.90;;;;;;5016974;28;19913;-71
2022/11/20 06:38:45;;;;;;;8.60;2.53;;;5.20;99.90;;;;;;5016485;28;20445;-68
2022/11/20 06:41:13;;;;;;;7.90;2.30;;;5.30;99.90;;;;;;5016822;28;20030;-69
2022/11/20 06:43:38;;;;;;;4.20;1.98;;;5.20;99.90;;;;;;5016453;28;20070;-68
2022/11/20 06:46:04;;;;;;;3.90;2.15;;;5.20;99.90;;;;;;5016201;28;20045;-68
2022/11/20 06:48:30;;;;;;;5.63;2.38;;;5.20;99.90;;;;;;5016455;28;20046;-70
2022/11/20 06:50:56;;;;;;;11.13;3.10;;;5.10;99.90;;;;;;5016363;28;20502;-69
2022/11/20 06:53:23;;;;;;;4.72;2.22;;;5.00;99.90;;;;;;5016339;28;20041;-68
2022/11/20 06:55:50;;;;;;;4.15;2.30;;;5.00;99.90;;;;;;5016427;28;20103;-71
2022/11/20 06:58:17;;;;;;;6.65;2.65;;;5.00;99.90;;;;;;5016283;28;20045;-68
2022/11/20 07:00:43;;;;;;;5.88;2.08;;;5.00;99.90;;;;;;5016498;28;20060;-71
2022/11/20 07:03:10;;;;;;;4.88;2.30;;;5.00;99.90;;;;;;5016197;28;20572;-69
2022/11/20 07:05:36;;;;;;;9.25;2.08;;;5.00;99.90;;;;;;5016002;28;20048;-68
2022/11/20 07:08:03;;;;;;;3.05;2.03;;;4.90;99.90;;;;;;5015719;28;20046;-71
2022/11/20 07:10:29;;;;;;;3.80;2.13;;;4.90;99.90;;;;;;5015849;28;20029;-71
2022/11/20 07:12:55;;;;;;;5.50;1.77;;;4.90;99.90;;;;;;5014995;28;20124;-68
2022/11/20 07:15:23;;;;;;;6.93;2.00;;;4.80;99.90;;;;;;5015935;28;20037;-68
2022/11/20 07:17:48;;;;;;;6.13;2.33;;;4.80;99.90;;;;;;5029364;28;20084;-68
2022/11/20 07:20:15;;;;;;;7.20;2.70;;;4.80;99.90;;;;;;5033553;28;20080;-68
2022/11/20 07:22:41;;;;;;;5.35;2.50;;;4.80;99.90;;;;;;5024378;28;20187;-68
2022/11/20 07:25:08;;;;;;;5.97;2.83;;;4.80;99.90;;;;;;5015781;28;20029;-68
2022/11/20 07:27:34;;;;;;;6.90;2.92;;;4.80;99.90;;;;;;5015623;28;20057;-68
2022/11/20 07:30:00;;;;;;;6.40;2.35;;;4.70;99.90;;;;;;5015545;28;20038;-68
2022/11/20 07:32:26;;;;;;;10.48;2.05;;;4.60;99.90;;;;;;5015392;28;20049;-69
2022/11/20 07:34:52;;;;;;;4.07;2.33;;;4.60;99.90;;;;;;5015425;28;20445;-71
2022/11/20 07:37:17;;;;;;;8.77;2.03;;;4.60;99.90;;;;;;5015307;28;20133;-68
2022/11/20 07:39:43;;;;;;;5.05;2.03;;;4.60;99.90;;;;;;5015266;28;20046;-71
2022/11/20 07:42:09;;;;;;;6.32;2.00;;;4.60;99.90;;;;;;5015140;28;20030;-69
2022/11/20 07:44:35;;;;;;;6.57;2.28;;;4.70;99.90;;;;;;5015425;28;20050;-68
2022/11/20 07:47:01;;;;;;;3.25;1.95;;;4.80;99.90;;;;;;5015318;28;20140;-72
2022/11/20 07:49:27;;;;;;;4.82;2.22;;;5.00;99.90;;;;;;5015168;28;20046;-71
2022/11/20 07:51:56;;;;;;;7.30;2.38;;;5.30;99.90;;;;;;5015014;28;20053;-69
2022/11/20 07:54:22;;;;;;;6.30;2.13;;;5.60;99.90;;;;;;5015252;28;20041;-70
2022/11/20 07:56:49;;;;;;;4.07;2.20;;;5.70;99.90;;;;;;5014877;28;20470;-68
2022/11/20 07:59:15;;;;;;;5.75;2.00;;;5.70;99.90;;;;;;5015116;28;20112;-69
2022/11/20 08:01:42;;;;;;;7.40;1.90;;;6.10;99.90;;;;;;5015337;28;20033;-71
2022/11/20 08:04:09;;;;;;;3.08;1.80;;;5.90;99.90;;;;;;5014937;28;20103;-69
2022/11/20 08:06:35;;;;;;;5.40;1.80;;;6.00;99.90;;;;;;5014908;28;20045;-68
2022/11/20 08:09:01;;;;;;;4.40;1.95;;;6.10;99.90;;;;;;5014799;28;20043;-68
2022/11/20 08:14:13;;;;;;;3.30;1.63;;;6.30;99.90;;;;;;5014701;28;20396;-68
2022/11/20 08:16:40;;;;;;;7.05;1.98;;;6.50;99.90;;;;;;5022859;28;20045;-68
2022/11/20 08:19:07;;;;;;;7.90;2.00;;;6.60;99.90;;;;;;5034295;28;20045;-69
2022/11/20 08:21:33;;;;;;;5.25;2.00;;;6.70;99.90;;;;;;5034466;28;20068;-68
2022/11/20 08:23:59;;;;;;;4.82;2.10;;;6.40;99.90;;;;;;5034146;28;20052;-72
2022/11/20 08:26:25;;;;;;;3.70;1.70;;;6.20;99.90;;;;;;5034267;28;20049;-68
2022/11/20 08:28:58;;;;;;;6.90;1.73;;;6.00;99.90;;;;;;5034561;28;20048;-69
2022/11/20 08:31:25;;;;;;;4.80;1.70;;;6.00;99.90;;;;;;5034220;28;20124;-68
2022/11/20 08:33:51;;;;;;;3.28;1.50;;;6.00;99.90;;;;;;5034343;28;20033;-69
2022/11/20 08:36:17;;;;;;;2.65;1.55;;;5.90;99.90;;;;;;5034515;28;20095;-68
2022/11/20 08:38:48;;;;;;;10.25;2.33;;;5.90;99.90;;;;;;5034289;28;20049;-68
2022/11/20 08:41:30;;;;;;;8.13;2.55;;;5.90;99.90;;;;;;5034388;28;20037;-70
2022/11/20 08:43:59;;;;;;;7.93;3.80;;;6.10;99.90;;;;;;5033970;28;20556;-69
2022/11/20 08:46:26;;;;;;;3.13;2.15;;;6.30;99.90;;;;;;5033978;28;20500;-69
2022/11/20 08:48:53;;;;;;;3.33;1.77;;;6.40;99.90;;;;;;5034168;28;20359;-71
2022/11/20 08:51:20;;;;;;;3.00;1.42;;;6.60;99.90;;;;;;5034107;28;20135;-71
2022/11/20 08:53:48;;;;;;;2.65;1.50;;;6.50;99.90;;;;;;5034031;28;20048;-68
2022/11/20 08:56:14;;;;;;;9.13;4.15;;;6.50;99.90;;;;;;5033867;28;20056;-69
2022/11/20 08:58:41;;;;;;;3.67;2.25;;;6.60;99.90;;;;;;5033945;28;20042;-68
2022/11/20 09:01:06;;;;;;;4.18;2.25;;;6.60;99.90;;;;;;5033837;28;20443;-68
2022/11/20 09:03:32;;;;;;;5.20;2.53;;;6.50;99.90;;;;;;5033815;28;20233;-68
2022/11/20 09:06:04;;;;;;;5.10;2.47;;;6.80;99.90;;;;;;5033880;28;20129;-68
2022/11/20 09:08:30;;;;;;;8.07;2.70;;;6.90;99.90;;;;;;5033977;28;20045;-68
2022/11/20 09:10:57;;;;;;;11.70;5.05;;;7.30;99.90;;;;;;5033646;28;20385;-69
2022/11/20 09:13:24;;;;;;;10.80;4.13;;;7.50;99.90;;;;;;5034000;28;20056;-69
2022/11/20 09:15:58;;;;;;;21.30;7.93;;;7.50;99.90;;;;;;5031817;28;20847;-68
2022/11/20 09:18:25;;;;;;;15.88;6.00;;;8.10;99.90;;;;;;5012729;28;20493;-68
2022/11/20 09:20:50;;;;;;;14.65;6.72;;;8.10;99.90;;;;;;5019960;28;20460;-68
2022/11/20 09:23:17;;;;;;;30.35;14.82;;;8.30;99.90;;;;;;5031351;28;20060;-66
2022/11/20 09:25:43;;;;;;;24.02;11.48;;;8.30;99.90;;;;;;5029983;28;20543;-66
2022/11/20 09:28:09;;;;;;;13.95;6.22;;;8.40;99.90;;;;;;5031045;28;20065;-66
2022/11/20 09:30:35;;;;;;;14.82;7.20;;;8.60;99.90;;;;;;5030952;28;20065;-66
2022/11/20 09:33:01;;;;;;;8.13;3.67;;;8.70;99.90;;;;;;5031823;28;20119;-66
2022/11/20 09:35:27;;;;;;;6.57;2.53;;;;;;;;;;5032635;28;20518;-66
2022/11/20 09:37:53;;;;;;;8.18;3.42;;;8.80;99.90;;;;;;5035276;28;20109;-66
2022/11/20 09:40:25;;;;;;;8.85;2.90;;;8.90;99.90;;;;;;5036724;28;20045;-66
2022/11/20 09:43:03;;;;;;;19.70;7.72;;;9.00;99.90;;;;;;5035025;28;20072;-66
2022/11/20 09:46:05;;;;;;;5.05;2.55;;;9.00;99.90;;;;;;5031094;28;20096;-67
2022/11/20 09:49:03;;;;;;;8.43;4.60;;;9.40;99.90;;;;;;5013236;28;20124;-66
2022/11/20 09:51:53;;;;;;;10.55;2.33;;;9.00;99.90;;;;;;5015217;28;20150;-66
2022/11/20 09:54:22;;;;;;;7.72;2.22;;;9.30;99.90;;;;;;5014745;28;20048;-66
2022/11/20 09:57:01;;;;;;;6.50;1.83;;;9.50;99.90;;;;;;5014739;28;20033;-66
2022/11/20 09:59:35;;;;;;;8.60;3.45;;;9.40;99.90;;;;;;5015739;28;20038;-66
2022/11/20 10:02:06;;;;;;;11.10;5.00;;;9.60;99.90;;;;;;5016181;28;20045;-66
2022/11/20 10:04:33;;;;;;;6.50;3.00;;;9.30;99.90;;;;;;5032019;28;20041;-66
2022/11/20 10:07:05;;;;;;;6.57;1.38;;;9.60;99.90;;;;;;5034613;28;20045;-66
2022/11/20 10:09:36;;;;;;;4.13;1.42;;;9.50;99.90;;;;;;5034964;28;20034;-66
2022/11/20 10:12:19;;;;;;;;;;;9.80;99.90;;;;;;5037224;28;20519;-66
2022/11/20 10:14:54;;;;;;;3.20;1.40;;;9.60;99.90;;;;;;5035261;28;19916;-67
2022/11/20 10:17:58;;;;;;;3.28;1.35;;;10.10;99.90;;;;;;5034500;28;20044;-66
2022/11/20 10:20:47;;;;;;;3.33;1.10;;;10.20;99.90;;;;;;5032905;28;20049;-67
2022/11/20 10:23:13;;;;;;;5.55;1.10;;;10.40;99.90;;;;;;5035685;28;20562;-66
2022/11/20 10:26:28;;;;;;;4.00;1.17;;;10.00;99.90;;;;;;5034550;28;20045;-65
2022/11/20 10:28:56;;;;;;;6.47;1.15;;;9.40;99.90;;;;;;4992488;28;20050;-66
2022/11/20 10:31:44;;;;;;;7.20;2.85;;;9.80;99.90;;;;;;5030209;28;20034;-67
2022/11/20 10:34:27;;;;;;;7.72;3.15;;;10.00;99.90;;;;;;5035194;28;20065;-66
2022/11/20 10:37:03;;;;;;;7.20;2.85;;;10.00;99.90;;;;;;5034319;28;20400;-67
2022/11/20 10:40:01;;;;;;;8.32;2.88;;;9.90;99.90;;;;;;5032716;28;20041;-69
2022/11/20 10:42:42;;;;;;;8.00;2.90;;;10.00;99.90;;;;;;5028531;28;20091;-69
2022/11/20 10:45:14;;;;;;;5.63;2.20;;;10.30;99.90;;;;;;5034315;28;20037;-69
2022/11/20 10:47:40;;;;;;;3.08;1.95;;;10.20;99.90;;;;;;5033779;28;20539;-68
2022/11/20 10:50:12;;;;;;;6.85;3.20;;;10.10;99.90;;;;;;5031906;28;20095;-66
2022/11/20 10:52:58;;;;;;;4.50;1.55;;;10.30;99.90;;;;;;5033255;28;20064;-69
2022/11/20 10:55:45;;;;;;;13.35;4.82;;;10.40;99.90;;;;;;5035314;28;20751;-66
2022/11/20 10:58:14;;;;;;;10.50;3.78;;;10.10;99.90;;;;;;5033665;28;20029;-67
2022/11/20 11:00:40;;;;;;;16.17;5.15;;;10.00;99.90;;;;;;5033701;28;20128;-69
2022/11/20 11:03:27;;;;;;;2.83;1.70;;;10.00;99.90;;;;;;5032995;28;20067;-67
2022/11/20 11:06:30;;;;;;;12.60;4.05;;;9.60;99.90;;;;;;5033639;28;20084;-68
2022/11/20 11:09:01;;;;;;;6.47;1.88;;;9.80;99.90;;;;;;5025696;28;20069;-67
2022/11/20 11:11:30;;;;;;;10.45;2.78;;;9.70;99.90;;;;;;5033638;28;20083;-68
2022/11/20 11:14:12;;;;;;;6.20;1.35;;;9.70;99.90;;;;;;5034450;28;20065;-70
2022/11/20 11:16:54;;;;;;;20.77;7.53;;;10.10;99.90;;;;;;5033095;28;20037;-70
2022/11/20 11:19:19;;;;;;;23.30;7.45;;;10.10;99.90;;;;;;5031454;28;20037;-67
2022/11/20 11:21:52;;;;;;;11.68;5.05;;;9.80;99.90;;;;;;5033600;28;20036;-67
2022/11/20 11:24:27;;;;;;;6.80;2.60;;;10.10;99.90;;;;;;5033542;28;20029;-66
2022/11/20 11:27:10;;;;;;;7.53;2.53;;;10.20;99.90;;;;;;5033221;28;20050;-68
2022/11/20 11:29:36;;;;;;;3.78;1.23;;;10.30;99.90;;;;;;5019566;28;20444;-67
2022/11/20 11:32:18;;;;;;;3.28;1.15;;;10.40;99.90;;;;;;5014003;28;20508;-67
2022/11/20 11:34:44;;;;;;;8.13;3.38;;;10.20;99.90;;;;;;5012919;28;20497;-66
2022/11/20 11:37:22;;;;;;;5.68;1.42;;;10.40;99.90;;;;;;5015524;28;20069;-68
2022/11/20 11:39:48;;;;;;;7.10;1.92;;;10.50;99.90;;;;;;5014658;28;20038;-67
2022/11/20 11:42:20;;;;;;;6.57;3.40;;;10.60;99.90;;;;;;5012757;28;20030;-67
2022/11/20 11:45:06;;;;;;;7.45;2.88;;;10.60;99.90;;;;;;5013151;28;20041;-67
2022/11/20 11:48:00;;;;;;;7.53;3.17;;;10.40;99.90;;;;;;5013273;28;20053;-67
2022/11/20 11:50:28;;;;;;;2.85;1.20;;;10.70;99.90;;;;;;5011137;28;20069;-66
2022/11/20 11:53:13;;;;;;;4.93;1.10;;;10.90;99.90;;;;;;5014100;28;20042;-66
2022/11/20 11:56:05;;;;;;;1.27;0.70;;;10.80;99.90;;;;;;5014082;28;20540;-68
2022/11/20 11:58:43;;;;;;;65.63;19.10;;;10.70;99.90;;;;;;5013885;28;20568;-68
2022/11/20 12:01:27;;;;;;;49.55;19.38;;;10.90;99.90;;;;;;5013328;28;20392;-66
2022/11/20 12:04:10;;;;;;;74.78;27.73;;;10.90;99.90;;;;;;5012236;28;20132;-66
2022/11/20 12:06:39;;;;;;;8.27;3.20;;;10.90;99.90;;;;;;5016036;28;20107;-66
2022/11/20 12:09:09;;;;;;;3.60;1.10;;;10.70;99.90;;;;;;5014239;28;20378;-66
2022/11/20 12:11:56;;;;;;;;;;;10.40;99.90;;;;;;5024836;28;20037;-66
2022/11/20 12:14:40;;;;;;;11.85;3.25;;;10.70;99.90;;;;;;5032749;28;20250;-67
2022/11/20 12:17:10;;;;;;;3.05;1.10;;;10.60;99.90;;;;;;5032737;28;20049;-67
2022/11/20 12:19:36;;;;;;;4.50;1.15;;;10.60;99.90;;;;;;5031731;28;20041;-67
2022/11/20 12:22:30;;;;;;;3.72;1.20;;;10.60;99.90;;;;;;5032742;28;20033;-67
2022/11/20 12:25:01;;;;;;;3.22;1.05;;;10.60;99.90;;;;;;5032433;28;20535;-70
2022/11/20 12:27:59;;;;;;;3.25;1.20;;;10.70;99.90;;;;;;5034299;28;20443;-70
2022/11/20 12:30:24;;;;;;;2.65;1.02;;;10.60;99.90;;;;;;5034407;28;20045;-70
2022/11/20 12:33:13;;;;;;;1.23;0.60;;;10.70;99.90;;;;;;5031211;28;20129;-69
2022/11/20 12:35:57;;;;;;;1.90;0.75;;;10.70;99.90;;;;;;5031791;28;20083;-68
2022/11/20 12:38:52;;;;;;;2.65;0.50;;;10.60;99.90;;;;;;5031830;28;20043;-68
2022/11/20 12:47:49;;;;;;;1.90;0.77;;;10.60;99.90;;;;;;5013740;28;20186;-67
2022/11/20 12:50:15;;;;;;;;;;;10.50;99.10;;;;;;5011380;28;20440;-68
2022/11/20 12:53:30;;;;;;;2.42;0.55;;;10.30;96.80;;;;;;5027115;28;19910;-67
2022/11/20 12:56:17;;;;;;;1.58;0.80;;;10.20;98.30;;;;;;4978163;28;20096;-68
2022/11/20 12:59:10;;;;;;;2.22;0.70;;;10.40;97.70;;;;;;5011815;28;20195;-67
2022/11/20 13:02:07;;;;;;;3.55;1.67;;;10.50;98.70;;;;;;5011820;28;20033;-67
2022/11/20 13:04:35;;;;;;;1.70;0.88;;;10.50;98.80;;;;;;5011980;28;20049;-69
2022/11/20 13:07:08;;;;;;;3.35;0.60;;;10.60;99.70;;;;;;5012946;28;20045;-68
2022/11/20 13:09:40;;;;;;;1.45;0.60;;;10.60;98.40;;;;;;5012420;28;20038;-68
2022/11/20 13:12:17;;;;;;;2.35;1.10;;;10.70;98.60;;;;;;5015568;28;20504;-67
2022/11/20 13:15:15;;;;;;;2.85;0.63;;;10.40;98.60;;;;;;5016119;28;20440;-67
2022/11/20 13:18:03;;;;;;;1.38;0.63;;;10.40;98.80;;;;;;5010658;28;20050;-67
2022/11/20 13:20:32;;;;;;;1.40;0.70;;;10.40;97.20;;;;;;5017026;28;20428;-67
2022/11/20 13:22:58;;;;;;;4.72;2.08;;;10.40;96.50;;;;;;5014704;28;20436;-67
2022/11/20 13:25:36;;;;;;;3.95;1.75;;;10.20;96.60;;;;;;5016098;28;20079;-66
2022/11/20 13:28:22;;;;;;;1.27;0.70;;;10.20;97.70;;;;;;5016512;28;20046;-67
2022/11/20 13:30:53;;;;;;;3.38;1.05;;;10.20;96.90;;;;;;5005414;28;20057;-67